createdAt,value
2022-09-04T00:02:31.533Z,97650.59
2022-09-04T00:05:20.467Z,97648.13
2022-09-04T00:07:52.220Z,97648.63
2022-09-04T00:10:38.237Z,97651.96
2022-09-04T00:13:12.318Z,97655.45
2022-09-04T00:15:47.599Z,97654.50
2022-09-04T00:18:34.592Z,97656.14
2022-09-04T00:21:05.702Z,97663.27
2022-09-04T00:23:46.810Z,97664.09
2022-09-04T00:26:36.912Z,97661.62
2022-09-04T00:29:14.829Z,97659.58
2022-09-04T00:31:52.310Z,97657.92
2022-09-04T00:34:39.144Z,97658.52
2022-09-04T00:37:13.195Z,97655.80
2022-09-04T00:39:53.657Z,97651.48
2022-09-04T00:42:43.048Z,97659.03
2022-09-04T00:45:32.274Z,97657.61
2022-09-04T00:48:20.873Z,97659.89
2022-09-04T00:51:26.491Z,97657.95
2022-09-04T00:54:45.756Z,97660.55
2022-09-04T00:58:04.938Z,97665.73
2022-09-04T01:00:33.376Z,97667.58
2022-09-04T01:03:19.460Z,97673.29
2022-09-04T01:06:04.127Z,97672.92
2022-09-04T01:09:04.740Z,97677.63
2022-09-04T01:11:49.752Z,97679.15
2022-09-04T01:14:48.631Z,97674.58
2022-09-04T01:17:23.360Z,97676.33
2022-09-04T01:20:20.358Z,97676.30
2022-09-04T01:23:00.537Z,97674.55
2022-09-04T01:25:50.080Z,97678.52
2022-09-04T01:28:30.181Z,97679.55
2022-09-04T01:31:19.765Z,97686.94
2022-09-04T01:34:06.135Z,97690.86
2022-09-04T01:36:49.564Z,97691.55
2022-09-04T01:39:22.315Z,97692.45
2022-09-04T01:42:29.126Z,97690.56
2022-09-04T01:44:57.528Z,97695.81
2022-09-04T01:47:51.500Z,97693.08
2022-09-04T01:50:27.095Z,97692.42
2022-09-04T01:53:13.480Z,97691.93
2022-09-04T01:56:09.891Z,97688.45
2022-09-04T01:58:40.896Z,97691.38
2022-09-04T02:01:56.813Z,97688.83
2022-09-04T02:04:40.745Z,97689.41
2022-09-04T02:07:31.092Z,97689.45
2022-09-04T02:10:02.271Z,97690.05
2022-09-04T02:12:53.354Z,97684.33
2022-09-04T02:15:41.418Z,97681.95
2022-09-04T02:18:36.393Z,97686.05
2022-09-04T02:21:47.667Z,97689.63
2022-09-04T02:24:31.006Z,97690.46
2022-09-04T02:27:13.383Z,97683.75
2022-09-04T02:29:52.890Z,97682.48
2022-09-04T02:32:29.150Z,97680.55
2022-09-04T02:34:59.918Z,97681.17
2022-09-04T02:37:59.315Z,97682.20
2022-09-04T02:40:36.404Z,97681.21
2022-09-04T02:43:07.309Z,97681.29
2022-09-04T02:45:45.276Z,97686.49
2022-09-04T02:48:35.480Z,97688.58
2022-09-04T02:51:18.819Z,97688.79
2022-09-04T02:54:16.783Z,97690.85
2022-09-04T02:57:24.558Z,97689.94
2022-09-04T03:00:13.411Z,97691.09
2022-09-04T03:03:05.830Z,97692.04
2022-09-04T03:05:42.299Z,97685.89
2022-09-04T03:08:24.053Z,97689.65
2022-09-04T03:11:05.246Z,97688.77
2022-09-04T03:13:47.321Z,97695.67
2022-09-04T03:16:28.028Z,97694.20
2022-09-04T03:19:19.812Z,97697.52
2022-09-04T03:22:14.121Z,97698.66
2022-09-04T03:25:13.151Z,97698.50
2022-09-04T03:27:41.504Z,97698.98
2022-09-04T03:30:12.452Z,97700.64
2022-09-04T03:33:12.397Z,97697.85
2022-09-04T03:35:59.426Z,97699.57
2022-09-04T03:38:41.236Z,97699.13
2022-09-04T03:41:59.307Z,97702.89
2022-09-04T03:44:52.535Z,97700.70
2022-09-04T03:47:46.686Z,97706.34
2022-09-04T03:50:49.576Z,97706.25
2022-09-04T03:53:56.486Z,97711.70
2022-09-04T03:56:42.503Z,97713.33
2022-09-04T03:59:25.364Z,97718.23
2022-09-04T04:02:10.159Z,97718.39
2022-09-04T04:05:09.292Z,97718.94
2022-09-04T04:08:04.782Z,97721.52
2022-09-04T04:10:33.928Z,97723.02
2022-09-04T04:13:39.438Z,97727.20
2022-09-04T04:16:41.894Z,97726.25
2022-09-04T04:19:28.851Z,97727.61
2022-09-04T04:22:09.133Z,97725.48
2022-09-04T04:24:48.237Z,97723.02
2022-09-04T04:27:25.770Z,97727.60
2022-09-04T04:29:53.738Z,97725.58
2022-09-04T04:32:42.261Z,97725.86
2022-09-04T04:35:25.503Z,97730.98
2022-09-04T04:38:08.839Z,97725.58
2022-09-04T04:40:39.537Z,97726.89
2022-09-04T04:43:26.921Z,97728.77
2022-09-04T04:46:20.431Z,97731.62
2022-09-04T04:49:17.442Z,97733.86
2022-09-04T04:52:33.868Z,97737.38
2022-09-04T04:55:31.447Z,97738.89
2022-09-04T04:58:24.495Z,97744.11
2022-09-04T05:01:12.165Z,97743.66
2022-09-04T05:04:09.411Z,97742.03
2022-09-04T05:06:57.328Z,97745.94
2022-09-04T05:09:50.581Z,97749.75
2022-09-04T05:12:48.749Z,97749.39
2022-09-04T05:15:33.147Z,97751.30
2022-09-04T05:18:45.603Z,97750.82
2022-09-04T05:21:39.689Z,97754.95
2022-09-04T05:24:32.743Z,97761.05
2022-09-04T05:27:10.854Z,97767.02
2022-09-04T05:30:08.703Z,97765.98
2022-09-04T05:32:50.684Z,97769.39
2022-09-04T05:35:35.562Z,97776.80
2022-09-04T05:38:12.713Z,97777.22
2022-09-04T05:40:46.668Z,97781.60
2022-09-04T05:43:42.347Z,97787.21
2022-09-04T05:46:52.210Z,97788.73
2022-09-04T05:49:20.392Z,97794.80
2022-09-04T05:52:22.524Z,97790.65
2022-09-04T05:55:06.643Z,97787.94
2022-09-04T05:57:34.689Z,97787.68
2022-09-04T06:00:08.417Z,97787.85
2022-09-04T06:03:04.610Z,97790.80
2022-09-04T06:05:39.331Z,97794.43
2022-09-04T06:08:40.851Z,97789.27
2022-09-04T06:11:39.922Z,97791.66
2022-09-04T06:14:23.304Z,97791.80
2022-09-04T06:17:06.343Z,97789.54
2022-09-04T06:19:53.112Z,97792.88
2022-09-04T06:22:26.747Z,97792.48
2022-09-04T06:25:14.011Z,97788.92
2022-09-04T06:27:55.863Z,97782.98
2022-09-04T06:30:30.675Z,97789.77
2022-09-04T06:33:03.357Z,97791.72
2022-09-04T06:36:07.099Z,97794.80
2022-09-04T06:39:03.119Z,97792.98
2022-09-04T06:41:49.505Z,97794.34
2022-09-04T06:44:32.965Z,97792.48
2022-09-04T06:47:27.269Z,97792.33
2022-09-04T06:49:55.170Z,97798.55
2022-09-04T06:52:30.934Z,97799.91
2022-09-04T06:55:06.159Z,97796.80
2022-09-04T06:57:52.799Z,97797.51
2022-09-04T07:00:20.975Z,97799.48
2022-09-04T07:03:00.504Z,97805.38
2022-09-04T07:05:38.111Z,97804.45
2022-09-04T07:08:30.930Z,97803.31
2022-09-04T07:11:22.033Z,97801.70
2022-09-04T07:14:16.560Z,97809.09
2022-09-04T07:16:49.584Z,97808.89
2022-09-04T07:19:48.531Z,97812.50
2022-09-04T07:22:43.970Z,97814.44
2022-09-04T07:26:03.678Z,97816.88
2022-09-04T07:29:29.736Z,97817.38
2022-09-04T07:32:08.544Z,97814.31
2022-09-04T07:35:05.096Z,97814.54
2022-09-04T07:37:59.225Z,97815.11
2022-09-04T07:40:53.418Z,97813.88
2022-09-04T07:43:36.906Z,97820.85
2022-09-04T07:46:22.870Z,97823.52
2022-09-04T07:49:13.005Z,97825.80
2022-09-04T07:52:03.279Z,97822.69
2022-09-04T07:54:49.893Z,97829.61
2022-09-04T07:57:32.239Z,97832.45
2022-09-04T08:00:15.215Z,97837.81
2022-09-04T08:03:17.095Z,97838.02
2022-09-04T08:06:14.298Z,97837.04
2022-09-04T08:09:07.159Z,97833.30
2022-09-04T08:11:41.106Z,97830.13
2022-09-04T08:14:48.023Z,97833.38
2022-09-04T08:17:24.649Z,97830.56
2022-09-04T08:20:23.351Z,97834.90
2022-09-04T08:23:00.318Z,97835.02
2022-09-04T08:25:44.791Z,97835.02
2022-09-04T08:28:33.490Z,97832.96
2022-09-04T08:31:20.988Z,97834.56
2022-09-04T08:34:03.441Z,97827.48
2022-09-04T08:36:38.323Z,97827.02
2022-09-04T08:39:18.364Z,97828.42
2022-09-04T08:41:52.639Z,97830.40
2022-09-04T08:44:35.685Z,97834.73
2022-09-04T08:47:28.438Z,97835.77
2022-09-04T08:50:08.824Z,97837.71
2022-09-04T08:52:39.400Z,97836.38
2022-09-04T08:55:20.001Z,97832.11
2022-09-04T08:58:22.926Z,97830.90
2022-09-04T09:01:18.835Z,97833.46
2022-09-04T09:04:20.778Z,97829.80
2022-09-04T09:07:14.350Z,97828.27
2022-09-04T09:10:00.749Z,97830.86
2022-09-04T09:12:44.426Z,97828.14
2022-09-04T09:15:31.611Z,97826.05
2022-09-04T09:18:18.131Z,97825.20
2022-09-04T09:21:26.273Z,97827.71
2022-09-04T09:24:28.292Z,97826.27
2022-09-04T09:27:12.078Z,97828.95
2022-09-04T09:30:08.951Z,97828.09
2022-09-04T09:33:22.465Z,97827.55
2022-09-04T09:35:59.440Z,97825.73
2022-09-04T09:38:52.817Z,97825.09
2022-09-04T09:41:51.845Z,97820.80
2022-09-04T09:44:26.973Z,97815.36
2022-09-04T09:47:52.658Z,97814.19
2022-09-04T09:50:40.218Z,97817.68
2022-09-04T09:53:47.001Z,97820.59
2022-09-04T09:56:36.711Z,97821.68
2022-09-04T09:59:11.322Z,97825.23
2022-09-04T10:01:39.312Z,97824.77
2022-09-04T10:04:44.770Z,97822.50
2022-09-04T10:07:14.841Z,97819.58
2022-09-04T10:09:58.022Z,97818.48
2022-09-04T10:13:04.004Z,97817.57
2022-09-04T10:15:52.947Z,97824.02
2022-09-04T10:19:10.472Z,97821.11
2022-09-04T10:22:20.201Z,97817.06
2022-09-04T10:25:06.680Z,97817.24
2022-09-04T10:28:01.463Z,97810.61
2022-09-04T10:30:43.026Z,97808.73
2022-09-04T10:33:32.425Z,97807.55
2022-09-04T10:36:34.375Z,97812.18
2022-09-04T10:39:48.561Z,97819.70
2022-09-04T10:42:55.593Z,97816.90
2022-09-04T10:45:39.162Z,97814.51
2022-09-04T10:48:16.292Z,97812.98
2022-09-04T10:51:02.462Z,97811.27
2022-09-04T10:53:51.357Z,97807.91
2022-09-04T10:56:26.409Z,97807.90
2022-09-04T10:59:10.408Z,97803.44
2022-09-04T11:02:12.356Z,97806.72
2022-09-04T11:05:07.891Z,97806.92
2022-09-04T11:08:07.160Z,97809.45
2022-09-04T11:11:18.443Z,97809.20
2022-09-04T11:14:18.761Z,97803.52
2022-09-04T11:16:52.514Z,97807.18
2022-09-04T11:20:16.178Z,97806.92
2022-09-04T11:23:13.214Z,97801.88
2022-09-04T11:26:06.252Z,97800.02
2022-09-04T11:28:52.576Z,97793.34
2022-09-04T11:31:26.535Z,97794.18
2022-09-04T11:34:33.267Z,97792.98
2022-09-04T11:37:33.824Z,97785.83
2022-09-04T11:40:20.237Z,97789.60
2022-09-04T11:43:08.956Z,97784.94
2022-09-04T11:45:43.179Z,97788.06
2022-09-04T11:48:47.667Z,97791.52
2022-09-04T11:51:43.213Z,97793.05
2022-09-04T11:54:41.291Z,97788.40
2022-09-04T11:57:15.501Z,97785.61
2022-09-04T11:59:59.219Z,97785.45
2022-09-04T12:02:29.793Z,97788.67
2022-09-04T12:05:04.190Z,97794.28
2022-09-04T12:07:56.951Z,97793.65
2022-09-04T12:10:46.376Z,97792.14
2022-09-04T12:13:44.076Z,97795.21
2022-09-04T12:16:47.695Z,97790.71
2022-09-04T12:19:53.180Z,97786.83
2022-09-04T12:22:36.748Z,97782.33
2022-09-04T12:25:10.776Z,97782.66
2022-09-04T12:28:07.092Z,97772.98
2022-09-04T12:31:12.565Z,97774.50
2022-09-04T12:33:43.718Z,97770.49
2022-09-04T12:36:42.573Z,97769.88
2022-09-04T12:39:24.495Z,97764.00
2022-09-04T12:42:05.007Z,97760.98
2022-09-04T12:44:42.081Z,97761.88
2022-09-04T12:47:28.794Z,97752.52
2022-09-04T12:50:28.392Z,97756.15
2022-09-04T12:53:26.260Z,97753.56
2022-09-04T12:56:18.619Z,97757.36
2022-09-04T12:59:02.172Z,97757.45
2022-09-04T13:01:59.412Z,97757.87
2022-09-04T13:04:56.039Z,97758.92
2022-09-04T13:07:52.093Z,97750.48
2022-09-04T13:10:32.950Z,97749.67
2022-09-04T13:13:16.308Z,97743.91
2022-09-04T13:16:04.174Z,97742.96
2022-09-04T13:18:51.420Z,97736.65
2022-09-04T13:21:42.621Z,97733.50
2022-09-04T13:24:25.822Z,97731.23
2022-09-04T13:27:21.576Z,97731.54
2022-09-04T13:30:03.017Z,97734.31
2022-09-04T13:33:05.917Z,97737.77
2022-09-04T13:35:43.075Z,97735.60
2022-09-04T13:38:17.181Z,97737.39
2022-09-04T13:41:15.866Z,97735.36
2022-09-04T13:44:13.496Z,97740.02
2022-09-04T13:46:48.667Z,97741.41
2022-09-04T13:49:24.643Z,97744.17
2022-09-04T13:52:03.856Z,97743.60
2022-09-04T13:54:42.665Z,97739.34
2022-09-04T13:57:17.950Z,97737.17
2022-09-04T13:59:50.119Z,97734.04
2022-09-04T14:02:25.595Z,97738.20
2022-09-04T14:04:57.965Z,97736.09
2022-09-04T14:07:36.308Z,97734.90
2022-09-04T14:10:22.055Z,97734.96
2022-09-04T14:13:12.895Z,97734.21
2022-09-04T14:16:00.024Z,97740.83
2022-09-04T14:18:46.846Z,97743.98
2022-09-04T14:21:20.699Z,97739.74
2022-09-04T14:24:14.027Z,97739.63
2022-09-04T14:26:48.163Z,97744.82
2022-09-04T14:29:36.363Z,97744.02
2022-09-04T14:32:32.460Z,97736.82
2022-09-04T14:35:19.096Z,97739.70
2022-09-04T14:38:02.499Z,97739.38
2022-09-04T14:40:34.482Z,97746.45
2022-09-04T14:43:25.363Z,97743.52
2022-09-04T14:46:10.349Z,97746.83
2022-09-04T14:48:44.699Z,97745.09
2022-09-04T14:51:41.348Z,97744.55
2022-09-04T14:54:19.433Z,97744.33
2022-09-04T14:56:51.055Z,97745.73
2022-09-04T14:59:43.659Z,97749.92
2022-09-04T15:02:11.585Z,97748.33
2022-09-04T15:04:49.281Z,97747.82
2022-09-04T15:07:24.954Z,97744.13
2022-09-04T15:09:54.861Z,97747.48
2022-09-04T15:12:32.773Z,97745.52
2022-09-04T15:15:07.612Z,97743.64
2022-09-04T15:17:40.329Z,97743.52
2022-09-04T15:20:17.104Z,97747.63
2022-09-04T15:22:57.431Z,97744.33
2022-09-04T15:25:47.990Z,97738.59
2022-09-04T15:28:42.729Z,97743.02
2022-09-04T15:31:18.652Z,97747.88
2022-09-04T15:33:48.709Z,97745.59
2022-09-04T15:36:22.763Z,97741.04
2022-09-04T15:39:01.244Z,97744.58
2022-09-04T15:41:32.419Z,97749.41
2022-09-04T15:44:34.432Z,97750.42
2022-09-04T15:47:17.204Z,97745.61
2022-09-04T15:49:53.897Z,97743.34
2022-09-04T15:52:36.859Z,97738.25
2022-09-04T15:55:08.670Z,97735.93
2022-09-04T15:57:40.224Z,97733.34
2022-09-04T16:00:11.696Z,97727.25
2022-09-04T16:02:57.049Z,97731.35
2022-09-04T16:05:46.164Z,97731.93
2022-09-04T16:08:41.242Z,97735.60
2022-09-04T16:11:19.166Z,97734.91
2022-09-04T16:13:49.906Z,97736.78
2022-09-04T16:16:24.331Z,97740.16
2022-09-04T16:19:24.070Z,97739.09
2022-09-04T16:22:20.924Z,97737.23
2022-09-04T16:24:56.116Z,97737.05
2022-09-04T16:27:28.829Z,97739.96
2022-09-04T16:30:02.990Z,97741.55
2022-09-04T16:32:35.407Z,97740.30
2022-09-04T16:35:19.552Z,97741.84
2022-09-04T16:37:59.378Z,97744.06
2022-09-04T16:40:33.732Z,97747.54
2022-09-04T16:43:45.061Z,97748.44
2022-09-04T16:46:20.466Z,97747.08
2022-09-04T16:48:57.998Z,97750.74
2022-09-04T16:51:42.141Z,97754.74
2022-09-04T16:54:20.097Z,97755.76
2022-09-04T16:57:12.923Z,97759.42
2022-09-04T16:59:55.504Z,97756.84
2022-09-04T17:02:51.344Z,97762.84
2022-09-04T17:06:06.409Z,97759.89
2022-09-04T17:08:38.357Z,97761.92
2022-09-04T17:11:27.853Z,97760.55
2022-09-04T17:14:08.596Z,97758.08
2022-09-04T17:17:12.508Z,97761.69
2022-09-04T17:20:09.080Z,97769.78
2022-09-04T17:28:57.033Z,97779.16
2022-09-04T17:29:02.239Z,97772.67
2022-09-04T17:29:10.497Z,97780.36
2022-09-04T17:31:51.311Z,97787.45
2022-09-04T17:40:33.266Z,97794.63
2022-09-04T17:40:48.714Z,97802.56
2022-09-04T17:40:53.609Z,97803.70
2022-09-04T17:43:40.105Z,97803.98
2022-09-04T17:46:27.750Z,97806.96
2022-09-04T17:48:56.533Z,97807.35
2022-09-04T17:51:33.815Z,97811.77
2022-09-04T17:54:10.505Z,97811.11
2022-09-04T17:56:55.253Z,97811.68
2022-09-04T17:59:45.545Z,97816.98
2022-09-04T18:02:33.936Z,97818.02
2022-09-04T18:05:23.640Z,97826.52
2022-09-04T18:08:08.465Z,97827.66
2022-09-04T18:10:54.576Z,97835.06
2022-09-04T18:14:02.272Z,97838.89
2022-09-04T18:16:36.792Z,97843.22
2022-09-04T18:19:28.085Z,97845.33
2022-09-04T18:22:25.570Z,97844.58
2022-09-04T18:24:57.710Z,97847.39
2022-09-04T18:28:12.453Z,97847.34
2022-09-04T18:37:13.062Z,97854.98
2022-09-04T18:37:18.718Z,97856.01
2022-09-04T18:37:46.608Z,97860.40
2022-09-04T18:40:36.083Z,97857.61
2022-09-04T18:50:21.096Z,97859.93
2022-09-04T18:50:45.747Z,97862.40
2022-09-04T18:50:53.512Z,97864.30
2022-09-04T18:52:14.140Z,97867.90
2022-09-04T18:54:49.860Z,97868.10
2022-09-04T18:57:34.748Z,97870.79
2022-09-04T19:00:10.573Z,97879.23
2022-09-04T19:02:52.981Z,97872.02
2022-09-04T19:05:44.424Z,97878.63
2022-09-04T19:08:28.534Z,97878.05
2022-09-04T19:11:17.458Z,97879.34
2022-09-04T19:14:00.751Z,97878.10
2022-09-04T19:16:53.238Z,97880.99
2022-09-04T19:19:31.870Z,97882.27
2022-09-04T19:22:25.123Z,97882.20
2022-09-04T19:25:27.676Z,97880.40
2022-09-04T19:28:16.616Z,97884.20
2022-09-04T19:31:11.844Z,97880.08
2022-09-04T19:33:45.139Z,97876.88
2022-09-04T19:36:32.421Z,97877.27
2022-09-04T19:45:56.596Z,97876.95
2022-09-04T19:46:15.506Z,97879.66
2022-09-04T19:46:16.655Z,97878.76
2022-09-04T19:49:19.366Z,97878.49
2022-09-04T19:53:32.176Z,97878.88
2022-09-04T19:54:37.536Z,97881.05
2022-09-04T19:57:32.942Z,97878.90
2022-09-04T20:00:30.932Z,97874.69
2022-09-04T20:03:07.820Z,97876.45
2022-09-04T20:05:40.103Z,97874.84
2022-09-04T20:08:14.288Z,97879.62
2022-09-04T20:10:49.986Z,97882.46
2022-09-04T20:13:35.483Z,97882.87
2022-09-04T20:16:22.683Z,97886.77
2022-09-04T20:18:53.698Z,97886.83
2022-09-04T20:21:27.698Z,97891.65
2022-09-04T20:24:12.057Z,97897.06
2022-09-04T20:26:56.683Z,97894.09
2022-09-04T20:29:31.961Z,97895.46
2022-09-04T20:32:09.160Z,97898.45
2022-09-04T20:34:40.296Z,97898.36
2022-09-04T20:37:22.699Z,97898.93
2022-09-04T20:39:59.533Z,97900.47
2022-09-04T20:42:54.133Z,97900.58
2022-09-04T20:49:06.772Z,97904.75
2022-09-04T20:52:45.581Z,97905.85
2022-09-04T20:52:56.435Z,97907.21
2022-09-04T20:54:52.024Z,97912.34
2022-09-04T21:03:05.648Z,97918.98
2022-09-04T21:03:22.137Z,97916.13
2022-09-04T21:03:35.287Z,97911.70
2022-09-04T21:06:25.674Z,97910.80
2022-09-04T21:09:22.755Z,97906.27
2022-09-04T21:12:14.050Z,97909.11
2022-09-04T21:14:52.124Z,97907.11
2022-09-04T21:17:37.421Z,97910.73
2022-09-04T21:20:41.650Z,97913.00
2022-09-04T21:23:41.194Z,97915.19
2022-09-04T21:26:36.433Z,97916.95
2022-09-04T21:29:21.928Z,97915.60
2022-09-04T21:32:14.906Z,97917.85
2022-09-04T21:35:25.239Z,97918.60
2022-09-04T21:37:59.957Z,97918.80
2022-09-04T21:40:57.229Z,97922.04
2022-09-04T21:43:40.457Z,97922.05
2022-09-04T21:46:23.449Z,97923.73
2022-09-04T21:49:36.587Z,97918.67
2022-09-04T21:52:42.590Z,97919.85
2022-09-04T21:58:06.704Z,97919.27
2022-09-04T22:02:30.950Z,97917.42
2022-09-04T22:02:38.111Z,97913.66
2022-09-04T22:04:35.488Z,97918.34
2022-09-04T22:10:06.655Z,97923.60
2022-09-04T22:13:27.468Z,97932.26
2022-09-04T22:13:50.810Z,97930.75
2022-09-04T22:16:37.347Z,97932.45
2022-09-04T22:19:28.213Z,97931.24
2022-09-04T22:22:37.976Z,97933.47
2022-09-04T22:25:06.582Z,97935.13
2022-09-04T22:28:08.621Z,97930.61
2022-09-04T22:30:46.638Z,97930.65
2022-09-04T22:33:50.757Z,97932.45
2022-09-04T22:36:42.254Z,97933.99
2022-09-04T22:39:45.284Z,97940.39
2022-09-04T22:42:25.374Z,97938.87
2022-09-04T22:45:16.084Z,97940.69
2022-09-04T22:47:49.730Z,97941.38
2022-09-04T22:50:49.501Z,97938.02
2022-09-04T22:53:49.550Z,97943.38
2022-09-04T22:56:34.175Z,97945.02
2022-09-04T22:59:37.756Z,97941.23
2022-09-04T23:02:39.925Z,97941.65
2022-09-04T23:05:36.644Z,97942.00
2022-09-04T23:13:52.404Z,97937.98
2022-09-04T23:13:53.767Z,97938.08
2022-09-04T23:14:49.101Z,97942.58
2022-09-04T23:17:36.283Z,97941.55
2022-09-04T23:26:32.847Z,97941.80
2022-09-04T23:26:46.613Z,97940.96
2022-09-04T23:27:00.408Z,97940.48
2022-09-04T23:29:44.495Z,97941.92
2022-09-04T23:32:28.283Z,97939.42
2022-09-04T23:35:41.604Z,97937.33
2022-09-04T23:39:01.092Z,97935.02
2022-09-04T23:42:24.716Z,97932.64
2022-09-04T23:45:29.967Z,97932.84
2022-09-04T23:48:37.050Z,97933.52
2022-09-04T23:51:47.265Z,97933.57
2022-09-04T23:54:58.038Z,97938.40
2022-09-04T23:58:21.005Z,97937.14
